Terminal Aerodrome Forecast
Issued by NWS Amarillo, TX

Home | Current Version | Previous Version | Text Only | Print | Product List | Glossary On
Versions: 1 2 3 4 5 6 7 8 9 10 11 12 13 14 15 16 17 18 19 20 21 22 23 24 25 26 27 28 29 30 31 32 33
000
FTUS44 KAMA 301700 RRA
TAFAMA
TAF
KAMA 301742Z 3018/3118 01009KT P6SM SCT030 BKN300
      TEMPO 3018/3021 BKN025
     FM310100 09008KT P6SM SCT300
     FM310700 16008KT P6SM SCT300
     FM311400 19012KT P6SM SCT030 BKN300=

USA.gov is the U.S. government's official web portal to all federal, state and local government web resources and services.